Time;durP1;ratioP1;P1;durP2;ratioP2;P2;SDS_P1;SDS_P2;PMS_P1;PMS_P2;Temp;Humidity;BMP_temperature;BMP_pressure;BME280_temperature;BME280_humidity;BME280_pressure;Samples;Min_cycle;Max_cycle;Signal;HPM_P1;HPM_P2
2021/01/02 00:01:04;;;;;;;32.20;23.42;;;2.50;99.90;;;;;;5047119;28;20083;-74
2021/01/02 00:03:30;;;;;;;40.30;24.10;;;2.50;99.90;;;;;;5045549;28;20049;-74
2021/01/02 00:06:15;;;;;;;33.88;23.55;;;2.50;99.90;;;;;;5045185;28;20749;-74
2021/01/02 00:08:49;;;;;;;35.22;24.50;;;2.40;99.90;;;;;;5044691;28;20139;-74
2021/01/02 00:11:35;;;;;;;36.53;23.95;;;2.40;99.90;;;;;;5047813;28;20163;-74
2021/01/02 00:14:34;;;;;;;42.65;26.83;;;2.40;99.90;;;;;;5048824;28;20294;-74
2021/01/02 00:17:38;;;;;;;37.65;25.88;;;2.40;99.90;;;;;;5039162;28;20095;-74
2021/01/02 00:20:27;;;;;;;38.22;23.95;;;2.40;99.90;;;;;;5028551;28;20061;-74
2021/01/02 00:22:58;;;;;;;45.83;26.25;;;2.40;99.90;;;;;;5028288;28;20049;-74
2021/01/02 00:25:28;;;;;;;40.88;25.38;;;2.50;99.90;;;;;;5032806;28;20045;-74
2021/01/02 00:27:57;;;;;;;40.83;25.40;;;2.40;99.90;;;;;;5047395;28;20179;-74
2021/01/02 00:30:52;;;;;;;40.38;26.75;;;2.40;99.90;;;;;;5047061;28;20053;-74
2021/01/02 00:33:41;;;;;;;35.00;23.77;;;2.50;99.90;;;;;;5046036;28;20076;-73
2021/01/02 00:36:21;;;;;;;38.88;25.38;;;2.50;99.90;;;;;;5042827;28;20073;-74
2021/01/02 00:38:48;;;;;;;47.03;26.13;;;2.50;99.90;;;;;;5027627;28;20048;-74
2021/01/02 00:41:17;;;;;;;39.22;25.58;;;2.50;99.90;;;;;;5046723;28;20134;-73
2021/01/02 00:43:46;;;;;;;43.08;27.40;;;2.50;99.90;;;;;;5046208;28;20064;-74
2021/01/02 00:46:12;;;;;;;39.85;25.33;;;2.40;99.90;;;;;;5046610;28;20040;-74
2021/01/02 00:48:40;;;;;;;43.25;26.67;;;2.50;99.90;;;;;;5046395;28;20064;-73
2021/01/02 00:51:09;;;;;;;40.95;27.30;;;2.40;99.90;;;;;;5045319;28;20048;-74
2021/01/02 00:53:56;;;;;;;46.17;27.23;;;2.40;99.90;;;;;;5012195;28;20060;-74
2021/01/02 00:56:31;;;;;;;39.38;25.58;;;2.40;99.90;;;;;;5020208;28;20072;-74
2021/01/02 00:59:42;;;;;;;39.80;25.80;;;2.40;99.90;;;;;;5031825;28;20379;-74
2021/01/02 01:02:24;;;;;;;45.35;26.83;;;2.40;99.90;;;;;;5027273;28;20085;-74
2021/01/02 01:05:03;;;;;;;43.20;26.30;;;2.40;99.90;;;;;;5044583;28;20045;-74
2021/01/02 01:07:32;;;;;;;42.05;28.33;;;2.40;99.90;;;;;;5035220;28;20055;-74
2021/01/02 01:10:03;;;;;;;43.60;26.77;;;2.40;99.90;;;;;;5040893;28;20052;-74
2021/01/02 01:12:38;;;;;;;49.92;28.50;;;2.50;99.90;;;;;;5042119;28;20045;-74
2021/01/02 01:15:05;;;;;;;;;;;2.40;99.90;;;;;;5037137;28;20124;-74
2021/01/02 01:17:39;;;;;;;42.28;25.63;;;2.50;99.90;;;;;;5012652;28;19925;-74
2021/01/02 01:20:12;;;;;;;48.33;25.45;;;2.50;99.90;;;;;;5043975;28;20084;-73
2021/01/02 01:22:42;;;;;;;52.70;27.95;;;2.40;99.90;;;;;;5036861;28;20048;-74
2021/01/02 01:25:27;;;;;;;50.63;27.85;;;2.40;99.90;;;;;;5028077;28;20045;-73
2021/01/02 01:27:55;;;;;;;53.38;29.98;;;2.40;99.90;;;;;;5046252;28;20053;-74
2021/01/02 01:30:23;;;;;;;40.78;27.30;;;2.40;99.90;;;;;;5032026;28;20057;-74
2021/01/02 01:33:00;;;;;;;48.15;29.42;;;2.40;99.90;;;;;;5024196;28;20673;-74
2021/01/02 01:35:28;;;;;;;45.30;28.45;;;2.40;99.90;;;;;;5046282;28;20068;-74
2021/01/02 01:37:58;;;;;;;52.22;29.85;;;2.40;99.90;;;;;;5035084;28;20056;-74
2021/01/02 01:40:26;;;;;;;53.92;28.60;;;2.40;99.90;;;;;;5043857;28;20147;-74
2021/01/02 01:43:04;;;;;;;53.10;27.88;;;2.50;99.90;;;;;;5046710;28;20080;-74
2021/01/02 01:45:37;;;;;;;54.28;29.38;;;2.40;99.90;;;;;;5027690;28;20486;-74
2021/01/02 01:48:05;;;;;;;49.85;30.23;;;2.50;99.90;;;;;;5043408;28;20064;-74
2021/01/02 01:51:05;;;;;;;45.25;27.52;;;2.50;99.90;;;;;;5045553;28;20124;-74
2021/01/02 01:54:09;;;;;;;49.22;28.77;;;2.50;99.90;;;;;;5036602;28;20055;-73
2021/01/02 01:56:43;;;;;;;54.80;29.92;;;2.50;99.90;;;;;;5032790;28;20136;-74
2021/01/02 01:59:15;;;;;;;54.33;31.15;;;2.50;99.90;;;;;;5036307;28;20048;-74
2021/01/02 02:01:47;;;;;;;47.78;29.65;;;2.50;99.90;;;;;;5043409;28;20089;-74
2021/01/02 02:04:59;;;;;;;45.42;28.30;;;2.50;99.90;;;;;;5045862;28;20151;-74
2021/01/02 02:07:38;;;;;;;51.65;30.55;;;2.50;99.90;;;;;;5047808;28;20041;-74
2021/01/02 02:10:06;;;;;;;54.65;31.63;;;2.50;99.90;;;;;;5038318;28;20051;-74
2021/01/02 02:12:34;;;;;;;53.30;30.08;;;2.40;99.90;;;;;;5045565;28;20513;-74
2021/01/02 02:15:06;;;;;;;48.92;29.20;;;2.40;99.90;;;;;;5045438;28;20057;-74
2021/01/02 02:17:45;;;;;;;53.88;28.20;;;2.50;99.90;;;;;;5023887;28;20083;-74
2021/01/02 02:20:14;;;;;;;55.15;28.92;;;2.40;99.90;;;;;;5035909;28;20127;-74
2021/01/02 02:22:41;;;;;;;51.47;29.33;;;2.40;99.90;;;;;;5032324;28;20055;-74
2021/01/02 02:25:13;;;;;;;47.95;28.40;;;2.40;99.90;;;;;;5032341;28;20154;-74
2021/01/02 02:27:42;;;;;;;51.88;30.35;;;2.40;99.90;;;;;;5031871;28;20129;-73
2021/01/02 02:30:12;;;;;;;53.53;29.95;;;2.50;99.90;;;;;;5030912;28;20049;-74
2021/01/02 02:32:47;;;;;;;46.70;28.35;;;2.40;99.90;;;;;;5034512;28;20140;-73
2021/01/02 02:35:15;;;;;;;;;;;2.50;99.90;;;;;;5045485;28;20060;-74
2021/01/02 02:37:45;;;;;;;45.72;27.45;;;2.40;99.90;;;;;;5018343;28;20019;-74
2021/01/02 02:40:17;;;;;;;47.05;28.60;;;2.50;99.90;;;;;;5035762;28;20151;-73
2021/01/02 02:43:03;;;;;;;45.03;28.10;;;2.40;99.90;;;;;;5040450;28;20052;-73
2021/01/02 02:45:33;;;;;;;48.28;30.05;;;2.50;99.90;;;;;;5033285;28;20103;-74
2021/01/02 02:48:03;;;;;;;55.88;31.25;;;2.40;99.90;;;;;;5033857;28;20073;-74
2021/01/02 02:50:31;;;;;;;51.50;29.67;;;2.50;99.90;;;;;;5035996;28;20129;-74
2021/01/02 02:53:12;;;;;;;47.75;28.75;;;2.50;99.90;;;;;;5043215;28;20152;-74
2021/01/02 02:55:40;;;;;;;51.05;28.15;;;2.50;99.90;;;;;;5042424;28;20068;-74
2021/01/02 02:58:07;;;;;;;52.97;29.98;;;2.40;99.90;;;;;;5024773;28;20045;-74
2021/01/02 03:00:34;;;;;;;47.05;29.30;;;2.50;99.90;;;;;;5026252;28;20152;-73
2021/01/02 03:03:02;;;;;;;51.10;29.25;;;2.50;99.90;;;;;;5042236;28;20084;-74
2021/01/02 03:05:29;;;;;;;56.97;31.38;;;2.50;99.90;;;;;;5042497;28;20655;-73
2021/01/02 03:07:56;;;;;;;54.75;30.42;;;2.50;99.90;;;;;;5040951;28;20072;-73
2021/01/02 03:10:23;;;;;;;55.10;30.20;;;2.50;99.90;;;;;;5044452;28;20165;-74
2021/01/02 03:12:51;;;;;;;57.30;31.27;;;2.50;99.90;;;;;;5043623;28;20136;-74
2021/01/02 03:15:22;;;;;;;48.95;29.77;;;2.50;99.90;;;;;;5040633;28;20595;-74
2021/01/02 03:17:49;;;;;;;51.50;30.02;;;2.50;99.90;;;;;;5043640;28;20098;-74
2021/01/02 03:20:17;;;;;;;48.10;29.40;;;2.50;99.90;;;;;;5043361;28;20057;-73
2021/01/02 03:22:46;;;;;;;49.90;28.13;;;2.50;99.90;;;;;;5043311;28;20057;-74
2021/01/02 03:25:13;;;;;;;50.53;29.05;;;2.60;99.90;;;;;;5059424;28;20167;-74
2021/01/02 03:27:40;;;;;;;58.13;30.00;;;2.50;99.90;;;;;;5042701;28;20136;-73
2021/01/02 03:30:12;;;;;;;51.45;30.90;;;2.60;99.90;;;;;;5046344;28;20063;-73
2021/01/02 03:32:39;;;;;;;54.20;30.33;;;2.60;99.90;;;;;;5030143;28;20132;-73
2021/01/02 03:35:08;;;;;;;55.13;29.33;;;2.60;99.90;;;;;;5040303;28;20048;-74
2021/01/02 03:37:35;;;;;;;54.67;31.40;;;2.60;99.90;;;;;;5039184;28;20063;-74
2021/01/02 03:40:04;;;;;;;49.67;30.65;;;2.60;99.90;;;;;;5026977;28;20124;-74
2021/01/02 03:42:30;;;;;;;57.65;30.90;;;2.50;99.90;;;;;;5046718;28;20140;-74
2021/01/02 03:44:57;;;;;;;51.47;31.13;;;2.50;99.90;;;;;;5048387;28;20421;-73
2021/01/02 03:47:24;;;;;;;56.00;32.30;;;2.40;99.90;;;;;;5046366;28;20056;-73
2021/01/02 03:49:51;;;;;;;53.75;30.60;;;2.40;99.90;;;;;;5030653;28;20055;-74
2021/01/02 03:52:17;;;;;;;50.75;31.35;;;2.40;99.90;;;;;;5046643;28;20140;-73
2021/01/02 03:54:43;;;;;;;52.67;32.20;;;2.40;99.90;;;;;;5035620;28;20057;-74
2021/01/02 03:57:09;;;;;;;57.17;31.02;;;2.40;99.90;;;;;;5040582;28;20140;-74
2021/01/02 03:59:36;;;;;;;58.95;31.95;;;2.40;99.90;;;;;;5045627;28;20138;-73
2021/01/02 04:02:02;;;;;;;61.65;34.53;;;2.50;99.90;;;;;;5042589;28;20048;-74
2021/01/02 04:04:29;;;;;;;57.60;31.23;;;2.40;99.90;;;;;;5033941;28;20055;-74
2021/01/02 04:06:55;;;;;;;59.13;31.45;;;2.40;99.90;;;;;;5030298;28;20132;-74
2021/01/02 04:09:22;;;;;;;60.72;32.88;;;2.50;99.90;;;;;;5040599;28;20045;-74
2021/01/02 04:11:49;;;;;;;61.50;34.45;;;2.40;99.90;;;;;;5040694;28;20135;-74
2021/01/02 04:14:16;;;;;;;56.45;33.45;;;2.50;99.90;;;;;;5039778;28;20067;-74
2021/01/02 04:16:42;;;;;;;58.45;32.83;;;2.50;99.90;;;;;;5040101;28;20041;-73
2021/01/02 04:19:12;;;;;;;60.25;33.47;;;2.50;99.90;;;;;;5027082;28;20125;-74
2021/01/02 04:21:39;;;;;;;59.50;31.15;;;2.50;99.90;;;;;;5025867;28;20050;-73
2021/01/02 04:24:06;;;;;;;57.40;31.05;;;2.50;99.90;;;;;;5026459;28;20065;-74
2021/01/02 04:26:33;;;;;;;65.68;33.90;;;2.50;99.90;;;;;;5041012;28;20065;-74
2021/01/02 04:29:00;;;;;;;55.22;32.30;;;2.50;99.90;;;;;;5029016;28;20055;-73
2021/01/02 04:31:35;;;;;;;62.97;33.88;;;2.50;99.90;;;;;;5045189;28;20139;-74
2021/01/02 04:34:03;;;;;;;62.05;32.67;;;2.50;99.90;;;;;;5038311;28;20460;-74
2021/01/02 04:36:29;;;;;;;59.78;31.83;;;2.50;99.90;;;;;;5042289;28;20063;-74
2021/01/02 04:38:55;;;;;;;63.10;34.00;;;2.50;99.90;;;;;;5038698;28;20055;-74
2021/01/02 04:41:22;;;;;;;56.00;33.38;;;2.40;99.90;;;;;;5004061;28;20136;-73
2021/01/02 04:43:49;;;;;;;67.53;35.15;;;2.40;99.90;;;;;;5044617;28;20049;-74
2021/01/02 04:46:17;;;;;;;60.95;32.65;;;2.50;99.90;;;;;;5027590;28;20111;-74
2021/01/02 04:48:45;;;;;;;60.30;33.33;;;2.40;99.90;;;;;;5046126;28;20088;-74
2021/01/02 04:51:13;;;;;;;60.00;31.50;;;2.50;99.90;;;;;;5030458;28;20049;-74
2021/01/02 04:53:40;;;;;;;60.17;31.88;;;2.40;99.90;;;;;;5034358;28;20041;-74
2021/01/02 04:56:08;;;;;;;61.03;33.03;;;2.50;99.90;;;;;;5031432;28;20695;-74
2021/01/02 04:58:36;;;;;;;65.90;35.20;;;2.50;99.90;;;;;;5034312;28;20107;-74
2021/01/02 05:01:04;;;;;;;70.18;37.17;;;2.50;99.90;;;;;;5024851;28;20525;-74
2021/01/02 05:03:43;;;;;;;68.75;34.28;;;2.40;99.90;;;;;;5024463;28;20110;-74
2021/01/02 05:06:10;;;;;;;69.57;34.97;;;2.40;99.90;;;;;;5038062;28;20103;-74
2021/01/02 05:08:38;;;;;;;68.85;32.65;;;2.40;99.90;;;;;;5027653;28;20092;-74
2021/01/02 05:11:07;;;;;;;70.30;35.25;;;2.40;99.90;;;;;;5015814;28;20102;-74
2021/01/02 05:13:35;;;;;;;65.35;35.38;;;2.40;99.90;;;;;;5029065;28;20549;-74
2021/01/02 05:16:19;;;;;;;62.75;32.70;;;2.30;99.90;;;;;;5046087;28;20052;-74
2021/01/02 05:18:57;;;;;;;60.83;33.47;;;2.30;99.90;;;;;;5045582;28;20048;-74
2021/01/02 05:21:28;;;;;;;69.75;35.58;;;2.30;99.90;;;;;;5046773;28;20064;-74
2021/01/02 05:24:10;;;;;;;63.92;34.97;;;2.30;99.90;;;;;;5040626;28;20045;-74
2021/01/02 05:26:42;;;;;;;66.43;35.10;;;2.30;99.90;;;;;;5033758;28;20142;-74
2021/01/02 05:29:11;;;;;;;66.80;33.17;;;2.30;99.90;;;;;;5035160;28;20073;-74
2021/01/02 05:31:38;;;;;;;67.57;35.80;;;2.30;99.90;;;;;;5044990;28;20052;-74
2021/01/02 05:34:06;;;;;;;63.35;34.90;;;2.30;99.90;;;;;;5045985;28;20071;-74
2021/01/02 05:36:32;;;;;;;64.18;35.03;;;2.40;99.90;;;;;;5024391;28;20164;-74
2021/01/02 05:39:00;;;;;;;63.05;33.60;;;2.30;99.90;;;;;;5025825;28;20132;-74
2021/01/02 05:41:27;;;;;;;60.92;31.73;;;2.30;99.90;;;;;;5002041;28;20145;-74
2021/01/02 05:44:11;;;;;;;62.47;34.47;;;2.30;99.90;;;;;;5006785;28;20053;-74
2021/01/02 05:46:48;;;;;;;72.78;33.55;;;2.30;99.90;;;;;;5005488;28;20052;-74
2021/01/02 05:49:40;;;;;;;63.78;33.35;;;2.30;99.90;;;;;;5008960;28;20060;-74
2021/01/02 05:52:09;;;;;;;63.72;33.30;;;2.30;99.90;;;;;;5011498;28;20103;-73
2021/01/02 05:54:53;;;;;;;62.88;33.95;;;2.30;99.90;;;;;;5025190;28;20056;-74
2021/01/02 05:57:25;;;;;;;67.10;34.03;;;2.30;99.90;;;;;;5042260;28;20493;-74
2021/01/02 05:59:53;;;;;;;66.82;33.97;;;2.30;99.90;;;;;;5044273;28;20044;-74
2021/01/02 06:02:23;;;;;;;64.38;33.55;;;2.40;99.90;;;;;;5046002;28;20049;-74
2021/01/02 06:04:57;;;;;;;65.13;35.53;;;2.40;99.90;;;;;;5037924;28;20049;-74
2021/01/02 06:07:30;;;;;;;63.45;35.13;;;2.40;99.90;;;;;;5014864;28;20204;-74
2021/01/02 06:09:57;;;;;;;65.97;34.95;;;2.40;99.90;;;;;;5045140;28;20593;-74
2021/01/02 06:12:43;;;;;;;64.90;33.97;;;2.40;99.90;;;;;;5043683;28;20045;-74
2021/01/02 06:15:13;;;;;;;66.88;34.97;;;2.40;99.90;;;;;;5043241;28;20051;-74
2021/01/02 06:17:46;;;;;;;72.53;34.97;;;2.40;99.90;;;;;;5032498;28;20139;-74
2021/01/02 06:20:14;;;;;;;68.30;32.88;;;2.40;99.90;;;;;;5037467;28;20073;-74
2021/01/02 06:22:41;;;;;;;63.75;36.20;;;2.40;99.90;;;;;;5041841;28;20151;-74
2021/01/02 06:25:13;;;;;;;65.75;37.28;;;2.40;99.90;;;;;;5006545;28;20076;-74
2021/01/02 06:27:44;;;;;;;67.80;34.00;;;2.30;99.90;;;;;;5032647;28;20091;-74
2021/01/02 06:30:15;;;;;;;71.90;37.83;;;2.30;99.90;;;;;;5044604;28;20053;-75
2021/01/02 06:32:47;;;;;;;65.90;33.05;;;2.40;99.90;;;;;;5044544;28;20052;-73
2021/01/02 06:35:21;;;;;;;64.35;37.22;;;2.40;99.90;;;;;;5017110;28;20443;-74
2021/01/02 06:37:47;;;;;;;69.07;35.72;;;2.40;99.90;;;;;;5034384;28;20519;-73
2021/01/02 06:40:24;;;;;;;75.97;35.47;;;2.40;99.90;;;;;;5045047;28;20061;-74
2021/01/02 06:42:58;;;;;;;68.80;36.58;;;2.40;99.90;;;;;;5030261;28;20047;-74
2021/01/02 06:45:37;;;;;;;73.18;36.53;;;2.40;99.90;;;;;;5026272;28;20049;-74
2021/01/02 06:48:12;;;;;;;68.32;36.38;;;2.50;99.90;;;;;;5043415;28;20194;-74
2021/01/02 06:50:43;;;;;;;76.15;36.03;;;2.40;99.90;;;;;;5043316;28;20045;-74
2021/01/02 06:53:19;;;;;;;75.88;38.97;;;2.50;99.90;;;;;;5044123;28;20198;-73
2021/01/02 06:55:55;;;;;;;71.60;37.38;;;2.50;99.90;;;;;;5040734;28;20065;-74
2021/01/02 06:58:22;;;;;;;77.22;39.35;;;2.60;99.90;;;;;;5023272;28;20481;-74
2021/01/02 07:00:48;;;;;;;73.93;38.90;;;2.70;99.90;;;;;;5022962;28;20136;-74
2021/01/02 07:03:39;;;;;;;66.00;37.67;;;2.70;99.90;;;;;;5016191;28;20722;-74
2021/01/02 07:06:24;;;;;;;79.80;39.28;;;2.70;99.90;;;;;;5040276;28;20139;-74
2021/01/02 07:08:50;;;;;;;70.20;36.27;;;2.70;99.90;;;;;;5042251;28;20102;-73
2021/01/02 07:11:45;;;;;;;65.25;36.25;;;2.60;99.90;;;;;;5042581;28;20045;-74
2021/01/02 07:14:12;;;;;;;76.78;39.67;;;2.60;99.90;;;;;;5042926;28;20518;-74
2021/01/02 07:16:52;;;;;;;76.13;39.05;;;2.60;99.90;;;;;;5044044;28;20041;-74
2021/01/02 07:19:30;;;;;;;74.03;39.63;;;2.60;99.90;;;;;;5044964;28;20281;-74
2021/01/02 07:22:04;;;;;;;70.32;38.22;;;2.60;99.90;;;;;;5042958;28;20064;-73
2021/01/02 07:24:32;;;;;;;72.53;37.25;;;2.60;99.90;;;;;;5045105;28;20079;-74
2021/01/02 07:27:01;;;;;;;71.43;37.72;;;2.50;99.90;;;;;;5026190;28;20053;-74
2021/01/02 07:29:28;;;;;;;76.25;39.88;;;2.40;99.90;;;;;;5036138;28;20521;-74
2021/01/02 07:32:15;;;;;;;69.88;37.63;;;2.40;99.90;;;;;;5037869;28;20139;-74
2021/01/02 07:34:44;;;;;;;78.15;37.70;;;2.40;99.90;;;;;;5039934;28;20049;-74
2021/01/02 07:37:13;;;;;;;81.65;37.35;;;2.50;99.90;;;;;;5041681;28;20455;-74
2021/01/02 07:39:40;;;;;;;73.18;40.08;;;2.50;99.90;;;;;;5042353;28;20045;-73
2021/01/02 07:42:12;;;;;;;80.53;41.08;;;2.60;99.90;;;;;;5030552;28;20498;-74
2021/01/02 07:44:39;;;;;;;78.00;41.90;;;2.60;99.90;;;;;;5005411;28;20053;-74
2021/01/02 07:47:07;;;;;;;76.28;40.25;;;2.60;99.90;;;;;;5023416;28;20139;-74
2021/01/02 07:49:33;;;;;;;72.40;40.83;;;2.70;99.90;;;;;;5022754;28;20128;-74
2021/01/02 07:52:01;;;;;;;84.78;42.65;;;2.70;99.90;;;;;;5024474;28;20041;-74
2021/01/02 07:54:33;;;;;;;80.68;44.47;;;2.70;99.90;;;;;;5024505;28;20049;-74
2021/01/02 07:57:00;;;;;;;85.22;41.90;;;2.80;99.90;;;;;;5017987;28;20143;-73
2021/01/02 07:59:33;;;;;;;80.63;41.22;;;2.70;99.90;;;;;;5043334;28;20052;-74
2021/01/02 08:02:07;;;;;;;80.35;43.53;;;2.70;99.90;;;;;;5043121;28;20462;-74
2021/01/02 08:04:35;;;;;;;73.78;36.63;;;2.70;99.90;;;;;;5030486;28;20059;-74
2021/01/02 08:07:06;;;;;;;76.25;40.05;;;2.70;99.90;;;;;;5029982;28;20687;-73
2021/01/02 08:09:35;;;;;;;82.30;39.58;;;2.70;99.90;;;;;;5021426;28;20330;-74
2021/01/02 08:12:06;;;;;;;78.78;40.75;;;2.70;99.90;;;;;;5023192;28;20045;-74
2021/01/02 08:14:35;;;;;;;77.80;39.45;;;2.60;99.90;;;;;;5022212;28;20632;-74
2021/01/02 08:17:06;;;;;;;75.85;38.67;;;2.70;99.90;;;;;;5034941;28;20049;-75
2021/01/02 08:19:55;;;;;;;77.28;37.80;;;2.80;99.90;;;;;;5046914;28;20147;-74
2021/01/02 08:22:35;;;;;;;70.55;37.20;;;2.70;99.90;;;;;;5027074;28;20140;-74
2021/01/02 08:25:25;;;;;;;74.93;37.92;;;2.70;99.90;;;;;;5042112;28;20453;-74
2021/01/02 08:27:55;;;;;;;75.57;40.35;;;2.80;99.90;;;;;;5008703;28;20080;-74
2021/01/02 08:30:22;;;;;;;80.60;43.15;;;2.70;99.90;;;;;;5045872;28;20048;-74
2021/01/02 08:32:54;;;;;;;79.43;42.17;;;2.70;99.90;;;;;;5043317;28;20045;-74
2021/01/02 08:35:28;;;;;;;72.88;40.50;;;2.80;99.90;;;;;;5033372;28;21649;-74
2021/01/02 08:38:03;;;;;;;72.10;43.10;;;2.90;99.90;;;;;;5044461;28;20053;-74
2021/01/02 08:40:35;;;;;;;81.15;43.78;;;2.90;99.90;;;;;;5046694;28;20080;-74
2021/01/02 08:43:02;;;;;;;74.35;42.05;;;3.00;99.90;;;;;;5027870;28;20681;-75
2021/01/02 08:45:31;;;;;;;75.88;39.90;;;3.00;99.90;;;;;;5025947;28;20580;-74
2021/01/02 08:48:04;;;;;;;91.80;47.70;;;3.10;99.90;;;;;;5009052;28;20156;-74
2021/01/02 08:50:31;;;;;;;93.35;49.80;;;3.10;99.90;;;;;;5036085;28;20045;-73
2021/01/02 08:52:58;;;;;;;115.35;60.55;;;3.10;99.90;;;;;;5039840;28;20033;-74
2021/01/02 08:55:28;;;;;;;112.60;56.53;;;3.10;99.90;;;;;;5035101;28;20045;-74
2021/01/02 08:57:55;;;;;;;77.07;45.22;;;3.10;99.90;;;;;;5035522;28;20049;-74
2021/01/02 09:00:31;;;;;;;79.65;43.00;;;3.30;99.90;;;;;;5024540;28;20045;-73
2021/01/02 09:03:07;;;;;;;95.05;50.80;;;3.40;99.90;;;;;;5024498;28;20053;-74
2021/01/02 09:05:38;;;;;;;97.43;47.75;;;3.40;99.90;;;;;;5036053;28;20068;-74
2021/01/02 09:08:06;;;;;;;97.38;52.10;;;3.40;99.90;;;;;;5036480;28;20068;-74
2021/01/02 09:10:43;;;;;;;84.95;48.90;;;3.30;99.90;;;;;;5045834;28;20052;-74
2021/01/02 09:13:16;;;;;;;80.80;46.10;;;3.40;99.90;;;;;;5032332;28;20532;-74
2021/01/02 09:15:56;;;;;;;81.70;42.70;;;3.50;99.90;;;;;;5042002;28;20468;-73
2021/01/02 09:18:31;;;;;;;82.05;44.42;;;3.40;99.90;;;;;;5034838;28;20317;-75
2021/01/02 09:21:05;;;;;;;76.05;42.85;;;3.40;99.90;;;;;;5037146;28;20045;-74
2021/01/02 09:23:39;;;;;;;71.10;38.83;;;3.40;99.90;;;;;;5030920;28;20084;-74
2021/01/02 09:26:26;;;;;;;67.70;38.47;;;3.40;99.90;;;;;;5030348;28;20042;-75
2021/01/02 09:28:54;;;;;;;68.82;39.20;;;3.30;99.90;;;;;;5040459;28;20373;-74
2021/01/02 09:31:22;;;;;;;62.47;36.10;;;3.30;99.90;;;;;;5023163;28;20053;-74
2021/01/02 09:33:51;;;;;;;69.38;38.80;;;3.30;99.90;;;;;;5035630;28;20053;-74
2021/01/02 09:36:19;;;;;;;71.75;42.38;;;3.30;99.90;;;;;;5039105;28;20068;-74
2021/01/02 09:38:46;;;;;;;76.90;42.90;;;3.40;99.90;;;;;;5034718;28;20048;-74
2021/01/02 09:41:19;;;;;;;77.10;42.13;;;3.40;99.90;;;;;;5035673;28;20049;-74
2021/01/02 09:43:46;;;;;;;73.95;39.33;;;3.50;99.90;;;;;;5045056;28;20410;-74
2021/01/02 09:46:16;;;;;;;73.65;42.35;;;3.40;99.90;;;;;;5041254;28;20053;-74
2021/01/02 09:48:51;;;;;;;73.40;43.45;;;3.50;99.90;;;;;;5042532;28;20513;-74
2021/01/02 09:51:20;;;;;;;75.32;40.88;;;3.50;99.90;;;;;;5026481;28;20581;-74
2021/01/02 09:53:47;;;;;;;69.57;39.17;;;3.40;99.90;;;;;;5028062;28;20638;-74
2021/01/02 09:56:13;;;;;;;69.28;39.78;;;3.40;99.90;;;;;;5035590;28;20073;-74
2021/01/02 09:58:42;;;;;;;76.22;41.03;;;3.40;99.90;;;;;;5024318;28;20140;-74
2021/01/02 10:01:09;;;;;;;65.53;40.65;;;3.50;99.90;;;;;;5038816;28;20741;-74
2021/01/02 10:03:35;;;;;;;63.30;40.38;;;3.50;99.90;;;;;;5031810;28;20067;-75
2021/01/02 10:06:04;;;;;;;71.57;39.25;;;3.50;99.90;;;;;;5022795;28;20423;-74
2021/01/02 10:08:30;;;;;;;62.80;41.13;;;3.60;99.90;;;;;;5028991;28;20045;-74
2021/01/02 10:10:57;;;;;;;72.78;41.50;;;3.60;99.90;;;;;;5030209;28;20053;-74
2021/01/02 10:13:23;;;;;;;68.05;37.08;;;3.60;99.90;;;;;;5037055;28;20115;-74
2021/01/02 10:15:50;;;;;;;61.05;39.35;;;3.60;99.90;;;;;;5043817;28;20649;-73
2021/01/02 10:18:16;;;;;;;70.43;39.40;;;3.50;99.90;;;;;;5024683;28;20111;-74
2021/01/02 10:20:43;;;;;;;64.65;40.35;;;3.40;99.90;;;;;;5024209;28;20049;-74
2021/01/02 10:23:09;;;;;;;63.47;37.95;;;3.50;99.90;;;;;;5032284;28;20071;-74
2021/01/02 10:25:36;;;;;;;78.97;41.63;;;3.50;99.90;;;;;;5027439;28;20050;-74
2021/01/02 10:28:03;;;;;;;74.15;41.22;;;3.50;99.90;;;;;;5037604;28;20056;-74
2021/01/02 10:30:29;;;;;;;64.15;37.30;;;3.50;99.90;;;;;;5042820;28;20049;-74
2021/01/02 10:32:56;;;;;;;64.20;38.30;;;3.50;99.90;;;;;;5058810;28;20464;-74
2021/01/02 10:35:23;;;;;;;68.75;42.88;;;3.50;99.90;;;;;;5043077;28;20052;-74
2021/01/02 10:37:49;;;;;;;67.07;39.35;;;3.60;99.90;;;;;;5037336;28;20059;-73
2021/01/02 10:40:17;;;;;;;65.55;38.05;;;3.50;99.90;;;;;;5036071;28;20071;-73
2021/01/02 10:42:44;;;;;;;65.38;39.58;;;3.60;99.90;;;;;;5040723;28;20460;-74
2021/01/02 10:45:14;;;;;;;93.38;49.25;;;3.60;99.90;;;;;;5042807;28;20079;-74
2021/01/02 10:47:40;;;;;;;73.40;42.80;;;3.60;99.90;;;;;;5043510;28;20064;-74
2021/01/02 10:50:08;;;;;;;69.75;42.58;;;3.50;99.90;;;;;;5035555;28;20529;-74
2021/01/02 10:52:35;;;;;;;66.55;39.95;;;3.60;99.90;;;;;;5027248;28;20057;-74
2021/01/02 10:55:02;;;;;;;59.33;38.22;;;3.50;99.90;;;;;;5030891;28;20056;-73
2021/01/02 10:57:29;;;;;;;64.07;38.40;;;3.50;99.90;;;;;;5041197;28;20417;-74
2021/01/02 10:59:56;;;;;;;69.95;39.78;;;3.50;99.90;;;;;;5043290;28;20126;-74
2021/01/02 11:02:23;;;;;;;70.47;40.00;;;3.60;99.90;;;;;;5039863;28;20202;-73
2021/01/02 11:04:51;;;;;;;71.22;38.05;;;3.60;99.90;;;;;;5043480;28;20263;-74
2021/01/02 11:07:23;;;;;;;54.15;35.88;;;3.70;99.90;;;;;;5029924;28;20041;-73
2021/01/02 11:09:52;;;;;;;62.10;38.08;;;3.70;99.90;;;;;;5037801;28;20056;-74
2021/01/02 11:12:20;;;;;;;72.70;41.03;;;3.60;99.90;;;;;;5022921;28;20056;-74
2021/01/02 11:14:48;;;;;;;72.53;42.65;;;3.50;99.90;;;;;;5021142;28;20046;-74
2021/01/02 11:17:14;;;;;;;73.75;41.53;;;3.50;99.90;;;;;;5021674;28;20081;-74
2021/01/02 11:19:44;;;;;;;66.05;40.22;;;3.60;99.90;;;;;;5022729;28;20052;-74
2021/01/02 11:22:11;;;;;;;61.25;38.00;;;3.50;99.90;;;;;;5032077;28;20121;-74
2021/01/02 11:24:40;;;;;;;69.95;38.78;;;3.40;99.90;;;;;;5027182;28;20600;-74
2021/01/02 11:27:07;;;;;;;64.40;40.70;;;3.50;99.90;;;;;;5039433;28;20080;-74
2021/01/02 11:29:34;;;;;;;67.43;40.63;;;3.50;99.90;;;;;;5030891;28;20045;-74
2021/01/02 11:32:04;;;;;;;70.78;42.67;;;3.60;99.90;;;;;;5042240;28;20057;-74
2021/01/02 11:34:31;;;;;;;65.80;42.13;;;3.60;99.90;;;;;;5043415;28;20801;-74
2021/01/02 11:37:00;;;;;;;65.13;41.60;;;3.60;99.90;;;;;;5032687;28;20049;-74
2021/01/02 11:39:27;;;;;;;71.40;41.92;;;3.70;99.90;;;;;;5043344;28;20049;-73
2021/01/02 11:41:54;;;;;;;70.20;41.25;;;3.70;99.90;;;;;;5024753;28;20060;-74
2021/01/02 11:44:23;;;;;;;63.22;39.53;;;3.70;99.90;;;;;;5040675;28;20077;-74
2021/01/02 11:46:52;;;;;;;63.17;38.88;;;3.70;99.90;;;;;;5040994;28;20053;-74
2021/01/02 11:49:22;;;;;;;73.43;40.13;;;3.70;99.90;;;;;;5042935;28;20048;-74
2021/01/02 11:51:51;;;;;;;76.07;41.83;;;3.70;99.90;;;;;;5030836;28;20037;-74
2021/01/02 11:54:17;;;;;;;70.82;42.33;;;3.70;99.90;;;;;;5022325;28;20448;-74
2021/01/02 11:56:45;;;;;;;78.82;43.55;;;3.70;99.90;;;;;;5037690;28;20232;-74
2021/01/02 11:59:12;;;;;;;77.95;42.55;;;3.60;99.90;;;;;;5045940;28;20060;-74
2021/01/02 12:01:44;;;;;;;63.70;41.42;;;3.70;99.90;;;;;;5045655;28;20044;-74
2021/01/02 12:04:14;;;;;;;77.68;42.72;;;3.70;99.90;;;;;;5040891;28;20045;-74
2021/01/02 12:06:41;;;;;;;72.45;43.03;;;3.80;99.90;;;;;;5040033;28;20522;-74
2021/01/02 12:09:10;;;;;;;82.13;41.47;;;3.70;99.90;;;;;;5044822;28;20052;-74
2021/01/02 12:11:40;;;;;;;65.53;41.22;;;3.70;99.90;;;;;;5044450;28;20076;-74
2021/01/02 12:14:08;;;;;;;69.63;40.80;;;3.70;99.90;;;;;;5027830;28;20041;-74
2021/01/02 12:16:40;;;;;;;65.80;41.25;;;3.80;99.90;;;;;;5041038;28;20034;-74
2021/01/02 12:19:10;;;;;;;61.92;41.55;;;3.80;99.90;;;;;;5046814;28;20077;-74
2021/01/02 12:21:37;;;;;;;76.05;41.45;;;3.80;99.90;;;;;;5045692;28;20055;-74
2021/01/02 12:24:04;;;;;;;70.35;42.83;;;3.90;99.90;;;;;;5033678;28;20045;-74
2021/01/02 12:26:30;;;;;;;66.80;41.42;;;3.90;99.90;;;;;;5025818;28;20099;-73
2021/01/02 12:28:57;;;;;;;63.83;40.25;;;4.00;99.90;;;;;;5026671;28;20045;-74
2021/01/02 12:31:44;;;;;;;65.75;41.45;;;4.00;99.90;;;;;;5028982;28;20437;-74
2021/01/02 12:34:12;;;;;;;63.08;40.20;;;4.00;99.90;;;;;;5027619;28;20072;-74
2021/01/02 12:36:40;;;;;;;68.15;42.95;;;4.00;99.90;;;;;;5033833;28;20053;-75
2021/01/02 12:39:08;;;;;;;71.28;42.03;;;4.00;99.90;;;;;;5038178;28;20056;-74
2021/01/02 12:41:36;;;;;;;79.05;46.70;;;4.00;99.90;;;;;;5032808;28;20060;-74
2021/01/02 12:44:04;;;;;;;60.58;37.38;;;4.00;99.90;;;;;;5045958;28;20119;-74
2021/01/02 12:46:51;;;;;;;65.68;40.22;;;4.00;99.90;;;;;;5044544;28;20128;-74
2021/01/02 12:49:20;;;;;;;70.43;41.05;;;4.00;99.90;;;;;;5058482;28;20140;-74
2021/01/02 12:51:51;;;;;;;67.72;41.80;;;4.00;99.90;;;;;;5030925;28;20148;-74
2021/01/02 12:54:17;;;;;;;75.50;42.22;;;4.10;99.90;;;;;;5031654;28;20099;-74
2021/01/02 12:56:47;;;;;;;64.85;40.83;;;4.10;99.90;;;;;;5035024;28;20518;-74
2021/01/02 12:59:18;;;;;;;65.57;39.97;;;4.10;99.90;;;;;;5026487;28;20054;-75